sensor_id;sensor_type;location;lat;lon;timestamp;P1;durP1;ratioP1;P2;durP2;ratioP2
12451;SDS011;72521;48.924;12.204;2023-11-22T00:01:53;3.27;;;2.50;;
12451;SDS011;72521;48.924;12.204;2023-11-22T00:06:59;3.87;;;3.07;;
12451;SDS011;72521;48.924;12.204;2023-11-22T00:12:03;3.90;;;2.87;;
12451;SDS011;72521;48.924;12.204;2023-11-22T00:17:08;2.50;;;2.30;;
12451;SDS011;72521;48.924;12.204;2023-11-22T00:22:14;4.30;;;3.20;;
12451;SDS011;72521;48.924;12.204;2023-11-22T00:27:17;3.83;;;3.30;;
12451;SDS011;72521;48.924;12.204;2023-11-22T00:32:21;3.63;;;3.00;;
12451;SDS011;72521;48.924;12.204;2023-11-22T00:37:27;4.30;;;3.03;;
12451;SDS011;72521;48.924;12.204;2023-11-22T00:42:32;3.33;;;2.80;;
12451;SDS011;72521;48.924;12.204;2023-11-22T00:47:38;3.03;;;2.40;;
12451;SDS011;72521;48.924;12.204;2023-11-22T00:52:44;3.50;;;2.40;;
12451;SDS011;72521;48.924;12.204;2023-11-22T00:57:50;2.13;;;1.90;;
12451;SDS011;72521;48.924;12.204;2023-11-22T01:02:54;3.40;;;2.43;;
12451;SDS011;72521;48.924;12.204;2023-11-22T01:07:59;3.03;;;2.40;;
12451;SDS011;72521;48.924;12.204;2023-11-22T01:13:03;2.70;;;2.50;;
12451;SDS011;72521;48.924;12.204;2023-11-22T01:18:08;3.67;;;2.70;;
12451;SDS011;72521;48.924;12.204;2023-11-22T01:23:14;3.37;;;2.77;;
12451;SDS011;72521;48.924;12.204;2023-11-22T01:28:18;3.83;;;3.33;;
12451;SDS011;72521;48.924;12.204;2023-11-22T01:33:23;3.57;;;2.73;;
12451;SDS011;72521;48.924;12.204;2023-11-22T01:38:30;4.10;;;3.07;;
12451;SDS011;72521;48.924;12.204;2023-11-22T01:43:34;5.53;;;3.23;;
12451;SDS011;72521;48.924;12.204;2023-11-22T01:48:41;3.33;;;2.80;;
12451;SDS011;72521;48.924;12.204;2023-11-22T01:53:47;3.87;;;2.90;;
12451;SDS011;72521;48.924;12.204;2023-11-22T01:58:55;3.93;;;2.90;;
12451;SDS011;72521;48.924;12.204;2023-11-22T02:04:01;3.77;;;3.07;;
12451;SDS011;72521;48.924;12.204;2023-11-22T02:09:07;3.63;;;2.80;;
12451;SDS011;72521;48.924;12.204;2023-11-22T02:14:17;4.10;;;2.90;;
12451;SDS011;72521;48.924;12.204;2023-11-22T02:19:21;3.33;;;2.40;;
12451;SDS011;72521;48.924;12.204;2023-11-22T02:24:27;5.50;;;2.60;;
12451;SDS011;72521;48.924;12.204;2023-11-22T02:29:34;2.60;;;2.30;;
12451;SDS011;72521;48.924;12.204;2023-11-22T02:34:38;3.43;;;2.40;;
12451;SDS011;72521;48.924;12.204;2023-11-22T02:39:45;3.23;;;2.33;;
12451;SDS011;72521;48.924;12.204;2023-11-22T02:44:59;2.53;;;2.20;;
12451;SDS011;72521;48.924;12.204;2023-11-22T02:50:03;2.80;;;1.97;;
12451;SDS011;72521;48.924;12.204;2023-11-22T02:55:10;2.10;;;1.67;;
12451;SDS011;72521;48.924;12.204;2023-11-22T03:00:17;2.57;;;1.90;;
12451;SDS011;72521;48.924;12.204;2023-11-22T03:05:21;2.17;;;1.97;;
12451;SDS011;72521;48.924;12.204;2023-11-22T03:10:27;3.60;;;2.00;;
12451;SDS011;72521;48.924;12.204;2023-11-22T03:15:32;3.30;;;2.30;;
12451;SDS011;72521;48.924;12.204;2023-11-22T03:20:36;2.17;;;1.97;;
12451;SDS011;72521;48.924;12.204;2023-11-22T03:25:42;3.63;;;1.90;;
12451;SDS011;72521;48.924;12.204;2023-11-22T03:30:47;2.73;;;2.10;;
12451;SDS011;72521;48.924;12.204;2023-11-22T03:35:52;2.33;;;2.00;;
12451;SDS011;72521;48.924;12.204;2023-11-22T03:40:57;2.63;;;2.00;;
12451;SDS011;72521;48.924;12.204;2023-11-22T03:46:01;2.13;;;1.80;;
12451;SDS011;72521;48.924;12.204;2023-11-22T03:51:05;1.90;;;1.70;;
12451;SDS011;72521;48.924;12.204;2023-11-22T03:56:11;3.93;;;3.40;;
12451;SDS011;72521;48.924;12.204;2023-11-22T04:01:15;4.97;;;2.33;;
12451;SDS011;72521;48.924;12.204;2023-11-22T04:06:20;2.67;;;2.30;;
12451;SDS011;72521;48.924;12.204;2023-11-22T04:11:26;3.50;;;2.40;;
12451;SDS011;72521;48.924;12.204;2023-11-22T04:16:31;2.87;;;2.47;;
12451;SDS011;72521;48.924;12.204;2023-11-22T04:21:35;3.03;;;2.50;;
12451;SDS011;72521;48.924;12.204;2023-11-22T04:26:41;3.93;;;3.00;;
12451;SDS011;72521;48.924;12.204;2023-11-22T04:31:49;3.27;;;2.97;;
12451;SDS011;72521;48.924;12.204;2023-11-22T04:36:53;4.17;;;3.30;;
12451;SDS011;72521;48.924;12.204;2023-11-22T04:41:59;4.80;;;3.63;;
12451;SDS011;72521;48.924;12.204;2023-11-22T04:47:04;3.73;;;3.20;;
12451;SDS011;72521;48.924;12.204;2023-11-22T04:52:11;4.67;;;3.03;;
12451;SDS011;72521;48.924;12.204;2023-11-22T04:57:16;4.80;;;3.83;;
12451;SDS011;72521;48.924;12.204;2023-11-22T05:02:21;5.30;;;3.90;;
12451;SDS011;72521;48.924;12.204;2023-11-22T05:07:25;4.30;;;3.67;;
12451;SDS011;72521;48.924;12.204;2023-11-22T05:12:31;4.83;;;3.90;;
12451;SDS011;72521;48.924;12.204;2023-11-22T05:17:35;4.23;;;3.43;;
12451;SDS011;72521;48.924;12.204;2023-11-22T05:22:41;4.53;;;3.90;;
12451;SDS011;72521;48.924;12.204;2023-11-22T05:27:46;4.07;;;3.27;;
12451;SDS011;72521;48.924;12.204;2023-11-22T05:32:52;4.33;;;3.60;;
12451;SDS011;72521;48.924;12.204;2023-11-22T05:37:56;4.60;;;3.77;;
12451;SDS011;72521;48.924;12.204;2023-11-22T05:43:03;4.50;;;3.30;;
12451;SDS011;72521;48.924;12.204;2023-11-22T05:48:13;4.00;;;3.37;;
12451;SDS011;72521;48.924;12.204;2023-11-22T05:53:17;5.60;;;4.00;;
12451;SDS011;72521;48.924;12.204;2023-11-22T05:58:24;3.80;;;3.00;;
12451;SDS011;72521;48.924;12.204;2023-11-22T06:03:28;4.07;;;2.97;;
12451;SDS011;72521;48.924;12.204;2023-11-22T06:08:32;4.10;;;3.30;;
12451;SDS011;72521;48.924;12.204;2023-11-22T06:13:39;3.93;;;3.53;;
12451;SDS011;72521;48.924;12.204;2023-11-22T06:18:44;3.73;;;3.20;;
12451;SDS011;72521;48.924;12.204;2023-11-22T06:23:48;3.57;;;3.23;;
12451;SDS011;72521;48.924;12.204;2023-11-22T06:28:54;3.53;;;3.07;;
12451;SDS011;72521;48.924;12.204;2023-11-22T06:33:58;3.77;;;3.03;;
12451;SDS011;72521;48.924;12.204;2023-11-22T06:39:03;4.13;;;3.40;;
12451;SDS011;72521;48.924;12.204;2023-11-22T06:44:09;3.57;;;2.73;;
12451;SDS011;72521;48.924;12.204;2023-11-22T06:49:13;3.13;;;2.83;;
12451;SDS011;72521;48.924;12.204;2023-11-22T06:54:18;3.50;;;3.20;;
12451;SDS011;72521;48.924;12.204;2023-11-22T06:59:24;3.93;;;3.13;;
12451;SDS011;72521;48.924;12.204;2023-11-22T07:04:32;3.57;;;3.23;;
12451;SDS011;72521;48.924;12.204;2023-11-22T07:09:37;3.27;;;2.60;;
12451;SDS011;72521;48.924;12.204;2023-11-22T07:14:48;3.20;;;2.70;;
12451;SDS011;72521;48.924;12.204;2023-11-22T07:19:52;3.37;;;2.60;;
12451;SDS011;72521;48.924;12.204;2023-11-22T07:24:56;3.43;;;2.83;;
12451;SDS011;72521;48.924;12.204;2023-11-22T07:30:08;3.27;;;2.67;;
12451;SDS011;72521;48.924;12.204;2023-11-22T07:35:15;3.90;;;2.80;;
12451;SDS011;72521;48.924;12.204;2023-11-22T07:40:21;2.70;;;2.50;;
12451;SDS011;72521;48.924;12.204;2023-11-22T07:45:27;3.53;;;2.97;;
12451;SDS011;72521;48.924;12.204;2023-11-22T07:50:31;4.10;;;2.80;;
12451;SDS011;72521;48.924;12.204;2023-11-22T07:55:37;2.93;;;2.53;;
12451;SDS011;72521;48.924;12.204;2023-11-22T08:00:42;3.67;;;3.00;;
12451;SDS011;72521;48.924;12.204;2023-11-22T08:05:47;4.00;;;2.80;;
12451;SDS011;72521;48.924;12.204;2023-11-22T08:10:54;4.53;;;2.77;;
12451;SDS011;72521;48.924;12.204;2023-11-22T08:15:59;3.23;;;2.77;;
12451;SDS011;72521;48.924;12.204;2023-11-22T08:21:04;3.70;;;2.70;;
12451;SDS011;72521;48.924;12.204;2023-11-22T08:26:08;4.00;;;3.33;;
12451;SDS011;72521;48.924;12.204;2023-11-22T08:31:15;3.23;;;2.93;;
12451;SDS011;72521;48.924;12.204;2023-11-22T08:36:19;3.60;;;3.30;;
12451;SDS011;72521;48.924;12.204;2023-11-22T08:41:23;4.57;;;3.60;;
12451;SDS011;72521;48.924;12.204;2023-11-22T08:46:30;3.10;;;2.80;;
12451;SDS011;72521;48.924;12.204;2023-11-22T08:51:34;3.20;;;2.90;;
12451;SDS011;72521;48.924;12.204;2023-11-22T08:56:39;3.53;;;3.23;;
12451;SDS011;72521;48.924;12.204;2023-11-22T09:01:49;4.50;;;3.30;;
12451;SDS011;72521;48.924;12.204;2023-11-22T09:06:53;4.50;;;3.60;;
12451;SDS011;72521;48.924;12.204;2023-11-22T09:18:05;4.57;;;3.87;;
12451;SDS011;72521;48.924;12.204;2023-11-22T09:23:10;4.90;;;4.10;;
12451;SDS011;72521;48.924;12.204;2023-11-22T09:28:16;3.55;;;3.25;;
12451;SDS011;72521;48.924;12.204;2023-11-22T09:33:35;4.17;;;3.33;;
12451;SDS011;72521;48.924;12.204;2023-11-22T09:38:40;3.87;;;3.50;;
12451;SDS011;72521;48.924;12.204;2023-11-22T09:43:44;3.90;;;3.50;;
12451;SDS011;72521;48.924;12.204;2023-11-22T09:48:53;4.60;;;4.07;;
12451;SDS011;72521;48.924;12.204;2023-11-22T09:53:59;4.93;;;4.30;;
12451;SDS011;72521;48.924;12.204;2023-11-22T09:59:09;5.03;;;4.10;;
12451;SDS011;72521;48.924;12.204;2023-11-22T10:04:18;4.93;;;4.23;;
12451;SDS011;72521;48.924;12.204;2023-11-22T10:09:22;8.33;;;5.83;;
12451;SDS011;72521;48.924;12.204;2023-11-22T10:14:26;6.87;;;5.37;;
12451;SDS011;72521;48.924;12.204;2023-11-22T10:19:32;6.50;;;5.83;;
12451;SDS011;72521;48.924;12.204;2023-11-22T10:24:36;7.13;;;5.30;;
12451;SDS011;72521;48.924;12.204;2023-11-22T10:29:42;6.00;;;5.33;;
12451;SDS011;72521;48.924;12.204;2023-11-22T10:34:50;7.47;;;5.10;;
12451;SDS011;72521;48.924;12.204;2023-11-22T10:39:55;6.30;;;5.33;;
12451;SDS011;72521;48.924;12.204;2023-11-22T10:45:00;6.67;;;5.30;;
12451;SDS011;72521;48.924;12.204;2023-11-22T10:50:11;6.33;;;5.73;;
12451;SDS011;72521;48.924;12.204;2023-11-22T10:55:15;6.20;;;4.80;;
12451;SDS011;72521;48.924;12.204;2023-11-22T11:00:22;5.40;;;4.33;;
12451;SDS011;72521;48.924;12.204;2023-11-22T11:05:31;4.40;;;3.60;;
12451;SDS011;72521;48.924;12.204;2023-11-22T11:10:38;4.20;;;3.10;;
12451;SDS011;72521;48.924;12.204;2023-11-22T11:15:44;2.97;;;2.53;;
12451;SDS011;72521;48.924;12.204;2023-11-22T11:20:50;3.15;;;2.55;;
12451;SDS011;72521;48.924;12.204;2023-11-22T11:25:58;3.92;;;3.00;;
12451;SDS011;72521;48.924;12.204;2023-11-22T11:31:12;4.00;;;2.93;;
12451;SDS011;72521;48.924;12.204;2023-11-22T11:36:21;3.25;;;2.70;;
12451;SDS011;72521;48.924;12.204;2023-11-22T11:41:27;4.43;;;3.17;;
12451;SDS011;72521;48.924;12.204;2023-11-22T11:46:33;15.90;;;5.63;;
12451;SDS011;72521;48.924;12.204;2023-11-22T11:51:40;6.00;;;4.60;;
12451;SDS011;72521;48.924;12.204;2023-11-22T11:56:44;3.83;;;3.43;;
12451;SDS011;72521;48.924;12.204;2023-11-22T12:01:53;4.20;;;3.67;;
12451;SDS011;72521;48.924;12.204;2023-11-22T12:07:00;3.97;;;3.57;;
12451;SDS011;72521;48.924;12.204;2023-11-22T12:12:05;6.40;;;4.20;;
12451;SDS011;72521;48.924;12.204;2023-11-22T12:17:09;4.70;;;4.10;;
12451;SDS011;72521;48.924;12.204;2023-11-22T12:22:16;4.90;;;4.40;;
12451;SDS011;72521;48.924;12.204;2023-11-22T12:27:20;5.65;;;4.88;;
12451;SDS011;72521;48.924;12.204;2023-11-22T12:32:24;5.97;;;4.80;;
12451;SDS011;72521;48.924;12.204;2023-11-22T12:37:31;5.53;;;4.57;;
12451;SDS011;72521;48.924;12.204;2023-11-22T12:42:45;6.13;;;5.10;;
12451;SDS011;72521;48.924;12.204;2023-11-22T12:47:54;7.70;;;5.60;;
12451;SDS011;72521;48.924;12.204;2023-11-22T12:53:11;7.73;;;6.17;;
12451;SDS011;72521;48.924;12.204;2023-11-22T12:58:17;11.70;;;6.70;;
12451;SDS011;72521;48.924;12.204;2023-11-22T13:03:22;8.47;;;6.83;;
12451;SDS011;72521;48.924;12.204;2023-11-22T13:08:28;8.77;;;6.63;;
12451;SDS011;72521;48.924;12.204;2023-11-22T13:13:33;10.57;;;6.40;;
12451;SDS011;72521;48.924;12.204;2023-11-22T13:18:37;9.03;;;6.40;;
12451;SDS011;72521;48.924;12.204;2023-11-22T13:23:43;14.75;;;7.38;;
12451;SDS011;72521;48.924;12.204;2023-11-22T13:28:47;9.73;;;7.17;;
12451;SDS011;72521;48.924;12.204;2023-11-22T13:33:54;18.47;;;11.77;;
12451;SDS011;72521;48.924;12.204;2023-11-22T13:39:00;9.50;;;7.43;;
12451;SDS011;72521;48.924;12.204;2023-11-22T13:44:08;10.47;;;7.17;;
12451;SDS011;72521;48.924;12.204;2023-11-22T13:49:12;10.87;;;7.50;;
12451;SDS011;72521;48.924;12.204;2023-11-22T13:54:18;11.83;;;8.33;;
12451;SDS011;72521;48.924;12.204;2023-11-22T13:59:22;11.03;;;7.60;;
12451;SDS011;72521;48.924;12.204;2023-11-22T14:04:27;12.10;;;8.13;;
12451;SDS011;72521;48.924;12.204;2023-11-22T14:09:33;12.97;;;9.60;;
12451;SDS011;72521;48.924;12.204;2023-11-22T14:14:38;12.30;;;8.07;;
12451;SDS011;72521;48.924;12.204;2023-11-22T14:19:43;10.83;;;7.63;;
12451;SDS011;72521;48.924;12.204;2023-11-22T14:24:56;11.87;;;8.80;;
12451;SDS011;72521;48.924;12.204;2023-11-22T14:30:01;10.33;;;8.13;;
12451;SDS011;72521;48.924;12.204;2023-11-22T14:35:09;11.07;;;8.70;;
12451;SDS011;72521;48.924;12.204;2023-11-22T14:40:14;11.30;;;8.27;;
12451;SDS011;72521;48.924;12.204;2023-11-22T14:45:21;12.43;;;8.43;;
12451;SDS011;72521;48.924;12.204;2023-11-22T14:50:28;10.20;;;7.63;;
12451;SDS011;72521;48.924;12.204;2023-11-22T14:55:34;12.40;;;8.50;;
12451;SDS011;72521;48.924;12.204;2023-11-22T15:00:42;11.83;;;8.50;;
12451;SDS011;72521;48.924;12.204;2023-11-22T15:05:46;9.03;;;6.90;;
12451;SDS011;72521;48.924;12.204;2023-11-22T15:10:52;9.23;;;6.60;;
12451;SDS011;72521;48.924;12.204;2023-11-22T15:15:56;9.53;;;6.47;;
12451;SDS011;72521;48.924;12.204;2023-11-22T15:21:01;11.67;;;6.87;;
12451;SDS011;72521;48.924;12.204;2023-11-22T15:26:06;8.57;;;6.60;;
12451;SDS011;72521;48.924;12.204;2023-11-22T15:31:10;9.00;;;6.57;;
12451;SDS011;72521;48.924;12.204;2023-11-22T15:36:17;8.00;;;5.97;;
12451;SDS011;72521;48.924;12.204;2023-11-22T15:41:23;10.13;;;7.10;;
12451;SDS011;72521;48.924;12.204;2023-11-22T15:46:29;9.93;;;5.97;;
12451;SDS011;72521;48.924;12.204;2023-11-22T15:51:33;10.87;;;7.57;;
12451;SDS011;72521;48.924;12.204;2023-11-22T15:56:39;10.63;;;7.07;;
12451;SDS011;72521;48.924;12.204;2023-11-22T16:01:47;10.13;;;6.43;;
12451;SDS011;72521;48.924;12.204;2023-11-22T16:06:51;8.23;;;6.07;;
12451;SDS011;72521;48.924;12.204;2023-11-22T16:11:57;7.97;;;6.23;;
12451;SDS011;72521;48.924;12.204;2023-11-22T16:17:02;13.07;;;8.83;;
12451;SDS011;72521;48.924;12.204;2023-11-22T16:22:07;11.00;;;8.03;;
12451;SDS011;72521;48.924;12.204;2023-11-22T16:27:13;10.77;;;8.40;;
12451;SDS011;72521;48.924;12.204;2023-11-22T16:32:17;10.10;;;8.53;;
12451;SDS011;72521;48.924;12.204;2023-11-22T16:37:22;12.87;;;8.03;;
12451;SDS011;72521;48.924;12.204;2023-11-22T16:42:28;11.03;;;7.80;;
12451;SDS011;72521;48.924;12.204;2023-11-22T16:47:32;13.67;;;8.57;;
12451;SDS011;72521;48.924;12.204;2023-11-22T16:52:38;10.33;;;8.00;;
12451;SDS011;72521;48.924;12.204;2023-11-22T16:57:48;9.57;;;7.20;;
12451;SDS011;72521;48.924;12.204;2023-11-22T17:02:53;8.60;;;7.37;;
12451;SDS011;72521;48.924;12.204;2023-11-22T17:08:01;10.63;;;7.53;;
12451;SDS011;72521;48.924;12.204;2023-11-22T17:13:07;11.27;;;8.43;;
12451;SDS011;72521;48.924;12.204;2023-11-22T17:18:13;10.10;;;7.90;;
12451;SDS011;72521;48.924;12.204;2023-11-22T17:23:17;11.43;;;8.27;;
12451;SDS011;72521;48.924;12.204;2023-11-22T17:28:24;14.53;;;9.13;;
12451;SDS011;72521;48.924;12.204;2023-11-22T17:33:28;9.70;;;6.83;;
12451;SDS011;72521;48.924;12.204;2023-11-22T17:38:33;10.57;;;8.13;;
12451;SDS011;72521;48.924;12.204;2023-11-22T17:43:39;11.40;;;8.13;;
12451;SDS011;72521;48.924;12.204;2023-11-22T17:48:44;7.97;;;5.93;;
12451;SDS011;72521;48.924;12.204;2023-11-22T17:53:48;11.40;;;7.40;;
12451;SDS011;72521;48.924;12.204;2023-11-22T17:58:54;13.83;;;8.93;;
12451;SDS011;72521;48.924;12.204;2023-11-22T18:03:59;9.67;;;7.20;;
12451;SDS011;72521;48.924;12.204;2023-11-22T18:09:04;12.17;;;8.63;;
12451;SDS011;72521;48.924;12.204;2023-11-22T18:14:13;15.40;;;11.90;;
12451;SDS011;72521;48.924;12.204;2023-11-22T18:19:18;10.33;;;8.23;;
12451;SDS011;72521;48.924;12.204;2023-11-22T18:24:22;10.60;;;8.20;;
12451;SDS011;72521;48.924;12.204;2023-11-22T18:29:30;9.53;;;7.90;;
12451;SDS011;72521;48.924;12.204;2023-11-22T18:34:34;10.33;;;7.57;;
12451;SDS011;72521;48.924;12.204;2023-11-22T18:39:39;10.33;;;7.97;;
12451;SDS011;72521;48.924;12.204;2023-11-22T18:44:45;11.27;;;8.40;;
12451;SDS011;72521;48.924;12.204;2023-11-22T18:49:50;16.67;;;9.93;;
12451;SDS011;72521;48.924;12.204;2023-11-22T18:54:55;9.87;;;7.63;;
12451;SDS011;72521;48.924;12.204;2023-11-22T19:00:01;11.27;;;8.13;;
12451;SDS011;72521;48.924;12.204;2023-11-22T19:05:08;9.50;;;7.07;;
12451;SDS011;72521;48.924;12.204;2023-11-22T19:10:13;9.03;;;7.53;;
12451;SDS011;72521;48.924;12.204;2023-11-22T19:15:20;13.20;;;8.17;;
12451;SDS011;72521;48.924;12.204;2023-11-22T19:20:24;11.67;;;8.00;;
12451;SDS011;72521;48.924;12.204;2023-11-22T19:25:29;11.10;;;7.87;;
12451;SDS011;72521;48.924;12.204;2023-11-22T19:30:35;10.13;;;7.37;;
12451;SDS011;72521;48.924;12.204;2023-11-22T19:35:40;18.63;;;13.33;;
12451;SDS011;72521;48.924;12.204;2023-11-22T19:40:44;19.77;;;13.43;;
12451;SDS011;72521;48.924;12.204;2023-11-22T19:45:50;11.97;;;7.43;;
12451;SDS011;72521;48.924;12.204;2023-11-22T19:50:57;13.20;;;8.90;;
12451;SDS011;72521;48.924;12.204;2023-11-22T19:56:01;14.13;;;9.40;;
12451;SDS011;72521;48.924;12.204;2023-11-22T20:01:07;11.43;;;7.80;;
12451;SDS011;72521;48.924;12.204;2023-11-22T20:06:12;11.07;;;7.67;;
12451;SDS011;72521;48.924;12.204;2023-11-22T20:11:18;11.10;;;8.13;;
12451;SDS011;72521;48.924;12.204;2023-11-22T20:16:23;14.00;;;8.83;;
12451;SDS011;72521;48.924;12.204;2023-11-22T20:21:27;12.23;;;7.70;;
12451;SDS011;72521;48.924;12.204;2023-11-22T20:26:32;13.60;;;8.17;;
12451;SDS011;72521;48.924;12.204;2023-11-22T20:31:37;6.57;;;3.67;;
12451;SDS011;72521;48.924;12.204;2023-11-22T20:36:44;12.23;;;8.43;;
12451;SDS011;72521;48.924;12.204;2023-11-22T20:41:49;10.87;;;7.93;;
12451;SDS011;72521;48.924;12.204;2023-11-22T20:46:54;10.17;;;7.23;;
12451;SDS011;72521;48.924;12.204;2023-11-22T20:51:59;12.27;;;7.20;;
12451;SDS011;72521;48.924;12.204;2023-11-22T20:57:03;15.67;;;8.30;;
12451;SDS011;72521;48.924;12.204;2023-11-22T21:02:09;10.70;;;7.50;;
12451;SDS011;72521;48.924;12.204;2023-11-22T21:07:14;11.27;;;7.67;;
12451;SDS011;72521;48.924;12.204;2023-11-22T21:12:19;7.63;;;4.90;;
12451;SDS011;72521;48.924;12.204;2023-11-22T21:17:24;10.10;;;7.10;;
12451;SDS011;72521;48.924;12.204;2023-11-22T21:22:42;9.43;;;6.13;;
12451;SDS011;72521;48.924;12.204;2023-11-22T21:27:46;9.93;;;6.43;;
12451;SDS011;72521;48.924;12.204;2023-11-22T21:32:51;9.50;;;6.80;;
12451;SDS011;72521;48.924;12.204;2023-11-22T21:37:56;10.77;;;7.10;;
12451;SDS011;72521;48.924;12.204;2023-11-22T21:43:00;10.80;;;5.63;;
12451;SDS011;72521;48.924;12.204;2023-11-22T21:48:06;8.67;;;7.23;;
12451;SDS011;72521;48.924;12.204;2023-11-22T21:53:13;9.43;;;6.60;;
12451;SDS011;72521;48.924;12.204;2023-11-22T21:58:17;9.70;;;6.73;;
12451;SDS011;72521;48.924;12.204;2023-11-22T22:03:24;10.40;;;6.50;;
12451;SDS011;72521;48.924;12.204;2023-11-22T22:08:28;9.40;;;6.57;;
12451;SDS011;72521;48.924;12.204;2023-11-22T22:13:33;10.00;;;7.13;;
12451;SDS011;72521;48.924;12.204;2023-11-22T22:18:39;11.30;;;7.77;;
12451;SDS011;72521;48.924;12.204;2023-11-22T22:23:44;10.00;;;6.83;;
12451;SDS011;72521;48.924;12.204;2023-11-22T22:28:48;12.10;;;7.80;;
12451;SDS011;72521;48.924;12.204;2023-11-22T22:33:54;10.93;;;7.37;;
12451;SDS011;72521;48.924;12.204;2023-11-22T22:38:59;9.40;;;6.70;;
12451;SDS011;72521;48.924;12.204;2023-11-22T22:44:06;9.67;;;7.10;;
12451;SDS011;72521;48.924;12.204;2023-11-22T22:49:14;9.33;;;6.73;;
12451;SDS011;72521;48.924;12.204;2023-11-22T22:54:19;11.33;;;7.47;;
12451;SDS011;72521;48.924;12.204;2023-11-22T22:59:24;12.17;;;7.93;;
12451;SDS011;72521;48.924;12.204;2023-11-22T23:04:32;11.00;;;7.17;;
12451;SDS011;72521;48.924;12.204;2023-11-22T23:09:38;11.00;;;7.63;;
12451;SDS011;72521;48.924;12.204;2023-11-22T23:14:43;13.57;;;8.73;;
12451;SDS011;72521;48.924;12.204;2023-11-22T23:19:49;11.57;;;8.27;;
12451;SDS011;72521;48.924;12.204;2023-11-22T23:24:53;16.67;;;10.50;;
12451;SDS011;72521;48.924;12.204;2023-11-22T23:29:57;13.07;;;8.60;;
12451;SDS011;72521;48.924;12.204;2023-11-22T23:35:03;11.67;;;8.03;;
12451;SDS011;72521;48.924;12.204;2023-11-22T23:40:09;11.23;;;7.83;;
12451;SDS011;72521;48.924;12.204;2023-11-22T23:45:19;11.57;;;8.20;;
12451;SDS011;72521;48.924;12.204;2023-11-22T23:50:27;13.27;;;8.87;;
12451;SDS011;72521;48.924;12.204;2023-11-22T23:55:30;13.87;;;9.30;;
